Hlavní strana
METAR-TAF:

METAR-TAF

Letiště :

Vadsø, Norsko

zeměpisná šířka: 70-04N, zeměpisná délka: 029-51E, výška: 3 m

Aktuální stav počasí

Zpráva byla vytvořena před 19 minutami, v 04:20 UTC
Jihojihozápadní vítr 6 kt
Teplota -4°C
Vlhkost vzduchu 86%
Tlak 1025 hPa
Viditelnost 10 km a více
Skoro jasno ve výšce 1000 ft
Oblačno až skoro zataženo ve výšce 10000 ft

METAR: ENVD 180420Z 20006KT 9999 FEW010 BKN100 M04/M06 Q1025

Čas: 05:39 (04:39 UTC)

Předpověď počasí

Zpráva byla vytvořena před 8 hodinami a 39 minutami, v 20:00 UTC
Předpověď platná od 17 v 21 UTC do 17 v 24 UTC
Jihovýchodní vítr 8 kt
Viditelnost: 8000 m
Polojasno ve výšce 900 ft
kouřmo
Dočasný
od 17 v 21 UTC do 17 v 24 UTC
Viditelnost: 2000 m
Oblačno až skoro zataženo ve výšce 400 ft
slabé sněžení, kouřmo

TAF: ENVD 172000Z 1721/1724 13008KT 8000 BR SCT009 TEMPO 1721/1724 2000 -SN BR BKN004

Stav a předpovědi počasí z více než 4 000 letišť (zprávy METAR a TAF).

Červené a žluté tečky na mapě představují dostupné meteorologické stanice.

Když kurzor umístíte na tečku, zobrazí se název stanice.

Pak kliknutím zobrazíte stav a předpověď počasí.

Chcete-li změnit mapu, kliknutím na zelené tlačítko se znaménkem +mapu přiblížíte, kliknutím na zelené tlačítko se znaménkem – mapu oddálíte a kliknutím na zelené šipky přejdete na sousední mapy.


METAR-TAF: